»·PEaware :: N221AS KSAN-KSMO

N221AS :: KSAN-KSMO

FLIGHT INFORMATION

Flight Status: Arrived
Operator: Privately registered:
United States
More flights under this callsign
Pilot: Michael N. (17635)
Aircraft: CIRRUS SR-22 TURBO
(S22T)
More flights by this aircraft type
Origin: KSAN San Diego Intl-Lindbergh
United States
Destination: KSMO Santa Monica Mun
United States
More flights between these airports :: More routes between these airports
Route: +
File this flight plan on PilotEdge
Remarks:
Altitude:
(Current/Filed)
6,500ft
Speed:
(Current/Filed)
0kts
Departed: 11-Jan-18 10:04 PM
Arrived: 11-Jan-18 10:49 PM
Distance/Time
Traveled:
100nm/0:44
Distance/Time
To Go:
Arrived

Flight Plot

Page will automatically refresh every two minutes.

Flight plan parsing failed; only flown route is shown


Map Options




Map Legend


Flown Route
Filed Route
Departure Airport
Arrival Airport
Navaid (VOR, NDB)
Fix

Horizontal Profiles

Position Reports

Time Latitude Longitude Heading Altitude Ground
Speed
11-Jan-18 22:04 32.732761 -117.178710 51 19ft 0kts
11-Jan-18 22:05 32.732761 -117.178710 51 19ft 0kts
11-Jan-18 22:06 32.733050 -117.179112 228 19ft 12kts
11-Jan-18 22:07 32.731324 -117.176473 104 19ft 39kts
11-Jan-18 22:08 32.730660 -117.175121 191 19ft 0kts
11-Jan-18 22:09 32.730660 -117.175121 191 19ft 0kts
11-Jan-18 22:10 32.732125 -117.183891 286 186ft 84kts
11-Jan-18 22:11 32.743778 -117.214918 322 1194ft 118kts
11-Jan-18 22:12 32.770458 -117.239449 320 2211ft 124kts
11-Jan-18 22:13 32.798430 -117.266576 319 3019ft 132kts
11-Jan-18 22:14 32.827209 -117.294063 324 3963ft 136kts
11-Jan-18 22:15 32.860003 -117.317980 337 4931ft 136kts
11-Jan-18 22:16 32.896371 -117.330712 345 5912ft 136kts
11-Jan-18 22:17 32.935524 -117.335193 357 6502ft 157kts
11-Jan-18 22:18 32.981508 -117.336514 357 6488ft 167kts
11-Jan-18 22:19 33.028597 -117.337768 357 6488ft 168kts
11-Jan-18 22:20 33.075516 -117.339541 352 6497ft 167kts
11-Jan-18 22:21 33.120019 -117.354299 341 6498ft 166kts
11-Jan-18 22:22 33.161562 -117.377758 323 6498ft 165kts
11-Jan-18 22:23 33.199215 -117.409643 322 6495ft 165kts
11-Jan-18 22:24 33.235508 -117.443041 317 6491ft 164kts
11-Jan-18 22:25 33.270018 -117.479278 316 6490ft 164kts
11-Jan-18 22:26 33.304259 -117.515487 316 6489ft 164kts
11-Jan-18 22:27 33.338484 -117.551676 316 6495ft 163kts
11-Jan-18 22:28 33.371854 -117.588844 311 6503ft 163kts
11-Jan-18 22:29 33.402987 -117.628396 311 6502ft 163kts
11-Jan-18 22:30 33.432285 -117.669961 305 6508ft 162kts
11-Jan-18 22:31 33.460151 -117.712438 305 6506ft 162kts
11-Jan-18 22:32 33.487887 -117.754994 305 6511ft 162kts
11-Jan-18 22:33 33.515624 -117.797837 305 6507ft 162kts
11-Jan-18 22:34 33.543266 -117.840689 305 6513ft 162kts
11-Jan-18 22:35 33.570835 -117.883392 305 6512ft 162kts
11-Jan-18 22:36 33.599276 -117.927863 304 6494ft 169kts
11-Jan-18 22:37 33.627215 -117.971776 304 6495ft 163kts
11-Jan-18 22:38 33.654566 -118.014913 304 6494ft 162kts
11-Jan-18 22:39 33.683295 -118.060577 304 5731ft 181kts
11-Jan-18 22:40 33.713838 -118.110137 302 4723ft 182kts
11-Jan-18 22:41 33.740430 -118.160319 301 3993ft 177kts
11-Jan-18 22:42 33.766588 -118.211568 301 3263ft 175kts
11-Jan-18 22:43 33.790385 -118.259729 300 3014ft 163kts
11-Jan-18 22:44 33.812954 -118.305946 300 2781ft 158kts
11-Jan-18 22:45 33.834476 -118.350419 300 2495ft 138kts
11-Jan-18 22:46 33.866387 -118.353886 11 2223ft 145kts
11-Jan-18 22:47 33.902573 -118.345171 8 2508ft 128kts
11-Jan-18 22:48 33.925204 -118.374305 294 2542ft 141kts
11-Jan-18 22:49 33.951300 -118.410804 320 2531ft 149kts
11-Jan-18 22:50 33.983646 -118.439849 321 2512ft 139kts
11-Jan-18 22:51 34.013926 -118.467353 324 2525ft 139kts
11-Jan-18 22:52 34.043295 -118.448127 46 1793ft 129kts
11-Jan-18 22:53 34.032013 -118.430887 236 773ft 95kts
11-Jan-18 22:54 34.016149 -118.450876 223 179ft 46kts
11-Jan-18 22:55 34.013582 -118.454810 316 179ft 0kts
11-Jan-18 22:56 34.013582 -118.454810 316 179ft 0kts
11-Jan-18 22:57 34.014569 -118.454235 338 179ft 6kts
11-Jan-18 22:58 34.014636 -118.454307 301 179ft 0kts
11-Jan-18 22:59 34.014636 -118.454307 301 179ft 0kts
11-Jan-18 23:00 34.014636 -118.454307 301 179ft 0kts
11-Jan-18 23:01 34.014636 -118.454307 301 179ft 0kts
11-Jan-18 23:02 34.014636 -118.454307 301 179ft 0kts
11-Jan-18 23:03 34.014636 -118.454307 301 179ft 0kts
11-Jan-18 23:04 34.014636 -118.454307 301 179ft 0kts
11-Jan-18 23:05 34.014636 -118.454307 301 179ft 0kts
11-Jan-18 23:06 34.014636 -118.454307 301 179ft 0kts
11-Jan-18 23:07 34.014636 -118.454307 301 179ft 0kts
11-Jan-18 23:08 34.014636 -118.454307 301 179ft 0kts
11-Jan-18 23:09 34.014636 -118.454307 301 179ft 0kts

Navigation Log

Ident Type
Flight plan parsing failed, navigation log unavailable